createdAt,value
2019-02-17T00:00:38.913Z,13.30
2019-02-17T00:03:07.444Z,14.27
2019-02-17T00:05:35.909Z,13.13
2019-02-17T00:08:04.405Z,13.13
2019-02-17T00:10:32.854Z,13.83
2019-02-17T00:13:01.312Z,13.20
2019-02-17T00:15:29.856Z,13.07
2019-02-17T00:17:58.308Z,14.43
2019-02-17T00:20:26.767Z,14.70
2019-02-17T00:22:55.247Z,13.90
2019-02-17T00:25:23.700Z,15.50
2019-02-17T00:27:52.158Z,15.80
2019-02-17T00:30:20.662Z,14.77
2019-02-17T00:32:49.130Z,13.27
2019-02-17T00:35:17.589Z,16.03
2019-02-17T00:37:46.077Z,15.30
2019-02-17T00:40:14.534Z,14.50
2019-02-17T00:42:42.998Z,12.13
2019-02-17T00:45:11.653Z,14.40
2019-02-17T00:47:40.172Z,13.57
2019-02-17T00:50:09.689Z,13.00
2019-02-17T00:52:38.191Z,13.20
2019-02-17T00:55:08.266Z,14.80
2019-02-17T00:57:36.725Z,15.40
2019-02-17T01:00:11.127Z,14.33
2019-02-17T01:02:39.591Z,14.17
2019-02-17T01:05:08.052Z,14.73
2019-02-17T01:07:36.549Z,16.00
2019-02-17T01:10:06.943Z,14.47
2019-02-17T01:12:35.405Z,15.10
2019-02-17T01:15:05.053Z,15.43
2019-02-17T01:17:33.504Z,15.53
2019-02-17T01:20:01.970Z,16.03
2019-02-17T01:22:30.456Z,14.70
2019-02-17T01:24:58.941Z,14.57
2019-02-17T01:27:27.391Z,16.10
2019-02-17T01:29:55.878Z,13.50
2019-02-17T01:32:24.334Z,13.70
2019-02-17T01:34:52.801Z,15.00
2019-02-17T01:37:21.303Z,15.87
2019-02-17T01:39:53.315Z,13.60
2019-02-17T01:42:21.772Z,14.73
2019-02-17T01:44:50.261Z,14.47
2019-02-17T01:47:18.722Z,14.90
2019-02-17T01:49:47.316Z,15.37
2019-02-17T01:52:15.815Z,16.53
2019-02-17T01:54:44.279Z,13.53
2019-02-17T01:57:12.854Z,15.00
2019-02-17T01:59:41.352Z,15.50
2019-02-17T02:02:09.819Z,14.67
2019-02-17T02:04:38.272Z,14.27
2019-02-17T02:07:06.756Z,16.07
2019-02-17T02:09:35.214Z,14.77
2019-02-17T02:12:03.747Z,15.50
2019-02-17T02:14:32.232Z,14.43
2019-02-17T02:17:00.689Z,15.53
2019-02-17T02:19:29.165Z,14.30
2019-02-17T02:21:57.671Z,15.87
2019-02-17T02:24:26.139Z,16.30
2019-02-17T02:26:54.595Z,15.43
2019-02-17T02:29:23.090Z,13.97
2019-02-17T02:31:51.558Z,15.93
2019-02-17T02:34:20.014Z,15.80
2019-02-17T02:36:48.531Z,16.97
2019-02-17T02:39:17.012Z,15.80
2019-02-17T02:41:45.473Z,16.77
2019-02-17T02:44:13.981Z,16.83
2019-02-17T02:46:42.439Z,16.47
2019-02-17T02:49:10.892Z,15.93
2019-02-17T02:51:39.375Z,16.50
2019-02-17T02:54:07.832Z,16.43
2019-02-17T02:56:36.301Z,16.20
2019-02-17T02:59:06.270Z,15.83
2019-02-17T03:01:34.731Z,15.57
2019-02-17T03:04:03.264Z,15.33
2019-02-17T03:06:39.563Z,13.83
2019-02-17T03:09:08.020Z,14.90
2019-02-17T03:11:36.491Z,15.47
2019-02-17T03:14:04.986Z,16.93
2019-02-17T03:16:33.460Z,16.50
2019-02-17T03:19:01.928Z,17.43
2019-02-17T03:21:30.419Z,16.90
2019-02-17T03:23:58.889Z,16.13
2019-02-17T03:26:27.373Z,15.60
2019-02-17T03:28:55.881Z,17.50
2019-02-17T03:31:24.351Z,17.20
2019-02-17T03:33:52.807Z,16.17
2019-02-17T03:36:21.312Z,17.00
2019-02-17T03:38:49.890Z,16.87
2019-02-17T03:41:18.328Z,17.17
2019-02-17T03:43:46.808Z,15.43
2019-02-17T03:46:15.272Z,17.63
2019-02-17T03:48:43.735Z,16.37
2019-02-17T03:51:12.391Z,18.13
2019-02-17T03:53:40.844Z,16.07
2019-02-17T03:56:09.314Z,17.87
2019-02-17T03:58:37.841Z,18.23
2019-02-17T04:01:07.270Z,16.07
2019-02-17T04:03:35.738Z,16.00
2019-02-17T04:06:04.242Z,17.53
2019-02-17T04:08:32.691Z,18.27
2019-02-17T04:11:01.175Z,16.90
2019-02-17T04:13:29.638Z,17.57
2019-02-17T04:15:58.105Z,16.43
2019-02-17T04:18:26.729Z,18.30
2019-02-17T04:20:55.232Z,18.50
2019-02-17T04:23:31.299Z,18.03
2019-02-17T04:25:55.049Z,18.67
2019-02-17T04:28:23.541Z,18.07
2019-02-17T04:30:52.010Z,19.13
2019-02-17T04:33:20.468Z,19.70
2019-02-17T04:35:48.997Z,20.20
2019-02-17T04:38:17.454Z,19.87
2019-02-17T04:40:45.945Z,15.77
2019-02-17T04:43:14.412Z,20.47
2019-02-17T04:45:42.872Z,19.83
2019-02-17T04:48:11.339Z,19.73
2019-02-17T04:50:39.833Z,20.00
2019-02-17T04:53:08.304Z,19.17
2019-02-17T04:55:36.752Z,20.80
2019-02-17T04:58:05.253Z,21.80
2019-02-17T05:00:40.293Z,20.80
2019-02-17T05:03:04.085Z,20.10
2019-02-17T05:05:32.591Z,20.30
2019-02-17T05:08:01.063Z,19.00
2019-02-17T05:10:29.531Z,19.60
2019-02-17T05:12:58.022Z,22.00
2019-02-17T05:15:26.504Z,20.87
2019-02-17T05:17:55.062Z,21.40
2019-02-17T05:20:23.527Z,21.63
2019-02-17T05:22:51.980Z,20.70
2019-02-17T05:25:20.431Z,21.37
2019-02-17T05:27:48.915Z,20.83
2019-02-17T05:30:17.374Z,23.53
2019-02-17T05:32:45.826Z,23.33
2019-02-17T05:35:14.330Z,24.50
2019-02-17T05:37:42.786Z,22.73
2019-02-17T05:40:11.284Z,21.20
2019-02-17T05:42:39.762Z,23.93
2019-02-17T05:45:08.296Z,23.77
2019-02-17T05:47:36.753Z,24.00
2019-02-17T05:50:06.515Z,22.03
2019-02-17T05:52:34.979Z,26.37
2019-02-17T05:55:03.429Z,23.47
2019-02-17T05:57:31.989Z,24.10
2019-02-17T06:00:00.744Z,24.07
2019-02-17T06:02:29.236Z,24.33
2019-02-17T06:04:59.083Z,24.10
2019-02-17T06:07:27.540Z,25.03
2019-02-17T06:09:56.010Z,23.63
2019-02-17T06:12:24.498Z,25.10
2019-02-17T06:14:52.965Z,26.10
2019-02-17T06:17:21.428Z,23.03
2019-02-17T06:19:49.926Z,25.57
2019-02-17T06:22:18.391Z,25.73
2019-02-17T06:24:46.854Z,25.20
2019-02-17T06:27:15.375Z,25.20
2019-02-17T06:29:43.827Z,26.30
2019-02-17T06:32:12.288Z,25.67
2019-02-17T06:34:40.779Z,26.73
2019-02-17T06:37:09.234Z,25.17
2019-02-17T06:39:37.693Z,24.80
2019-02-17T06:42:06.184Z,28.00
2019-02-17T06:44:34.674Z,26.77
2019-02-17T06:47:03.319Z,27.57
2019-02-17T06:49:31.817Z,25.23
2019-02-17T06:52:00.287Z,27.27
2019-02-17T06:54:28.737Z,26.87
2019-02-17T06:56:58.884Z,24.70
2019-02-17T06:59:27.340Z,24.67
2019-02-17T07:01:55.805Z,26.23
2019-02-17T07:04:26.921Z,25.30
2019-02-17T07:06:57.187Z,26.47
2019-02-17T07:09:25.667Z,23.40
2019-02-17T07:11:56.882Z,25.27
2019-02-17T07:14:24.370Z,24.67
2019-02-17T07:16:52.824Z,26.67
2019-02-17T07:19:21.311Z,24.90
2019-02-17T07:21:51.391Z,26.30
2019-02-17T07:24:19.845Z,26.57
2019-02-17T07:26:48.415Z,27.67
2019-02-17T07:29:21.152Z,27.53
2019-02-17T07:31:49.628Z,26.20
2019-02-17T07:34:19.455Z,25.20
2019-02-17T07:36:48.888Z,25.63
2019-02-17T07:39:19.504Z,28.57
2019-02-17T07:41:49.651Z,24.23
2019-02-17T07:44:25.117Z,24.57
2019-02-17T07:46:55.190Z,25.33
2019-02-17T07:49:23.667Z,24.10
2019-02-17T07:51:52.146Z,26.67
2019-02-17T07:54:20.661Z,24.07
2019-02-17T07:56:49.160Z,25.40
2019-02-17T07:59:17.620Z,24.60
2019-02-17T08:01:46.205Z,24.83
2019-02-17T08:04:16.784Z,25.20
2019-02-17T08:06:48.428Z,26.00
2019-02-17T08:09:17.169Z,24.90
2019-02-17T08:11:47.259Z,25.07
2019-02-17T08:14:16.739Z,27.27
2019-02-17T08:16:47.077Z,25.40
2019-02-17T08:19:16.383Z,25.80
2019-02-17T08:21:48.035Z,25.93
2019-02-17T08:24:29.656Z,27.80
2019-02-17T08:26:59.768Z,26.00
2019-02-17T08:29:30.748Z,23.90
2019-02-17T08:32:00.864Z,26.53
2019-02-17T08:34:29.334Z,23.90
2019-02-17T08:36:59.616Z,25.70
2019-02-17T08:39:28.962Z,25.93
2019-02-17T08:41:57.431Z,25.87
2019-02-17T08:44:25.961Z,26.70
2019-02-17T08:46:54.444Z,25.07
2019-02-17T08:49:22.908Z,26.23
2019-02-17T08:51:51.406Z,24.50
2019-02-17T08:54:19.888Z,25.87
2019-02-17T08:56:48.388Z,24.73
2019-02-17T08:59:16.879Z,25.67
2019-02-17T09:01:45.356Z,24.40
2019-02-17T09:04:13.837Z,24.60
2019-02-17T09:06:42.343Z,25.43
2019-02-17T09:09:10.864Z,24.17
2019-02-17T09:11:40.365Z,25.37
2019-02-17T09:14:08.896Z,23.80
2019-02-17T09:16:37.359Z,25.40
2019-02-17T09:19:05.830Z,24.43
2019-02-17T09:21:34.315Z,25.20
2019-02-17T09:24:02.945Z,27.07
2019-02-17T09:26:31.414Z,26.23
2019-02-17T09:28:59.901Z,25.40
2019-02-17T09:31:30.129Z,26.17
2019-02-17T09:33:58.602Z,26.43
2019-02-17T09:36:27.274Z,25.63
2019-02-17T09:38:55.750Z,25.33
2019-02-17T09:41:24.246Z,25.00
2019-02-17T09:43:52.729Z,24.73
2019-02-17T09:46:21.211Z,25.10
2019-02-17T09:48:49.788Z,26.20
2019-02-17T09:51:18.250Z,25.20
2019-02-17T09:53:47.018Z,25.47
2019-02-17T09:56:15.470Z,25.30
2019-02-17T09:58:43.940Z,24.40
2019-02-17T10:01:12.470Z,26.70
2019-02-17T10:03:40.961Z,27.47
2019-02-17T10:06:09.424Z,24.60
2019-02-17T10:08:37.882Z,27.13
2019-02-17T10:11:06.391Z,25.27
2019-02-17T10:13:34.957Z,27.07
2019-02-17T10:16:03.419Z,26.93
2019-02-17T10:18:31.924Z,25.93
2019-02-17T10:21:00.454Z,25.40
2019-02-17T10:23:28.929Z,26.60
2019-02-17T10:25:57.457Z,27.83
2019-02-17T10:28:25.893Z,26.80
2019-02-17T10:30:54.370Z,27.07
2019-02-17T10:33:22.879Z,26.80
2019-02-17T10:35:51.454Z,25.40
2019-02-17T10:38:19.919Z,26.57
2019-02-17T10:40:48.409Z,25.13
2019-02-17T10:43:16.871Z,25.20
2019-02-17T10:45:45.333Z,26.90
2019-02-17T10:48:13.898Z,24.70
2019-02-17T10:50:42.380Z,24.83
2019-02-17T10:53:11.199Z,26.20
2019-02-17T10:55:39.700Z,25.47
2019-02-17T10:58:08.160Z,25.60
2019-02-17T11:00:36.626Z,27.03
2019-02-17T11:03:07.466Z,26.60
2019-02-17T11:05:36.026Z,26.23
2019-02-17T11:08:04.483Z,25.50
2019-02-17T11:10:32.999Z,26.60
2019-02-17T11:13:01.469Z,25.57
2019-02-17T11:15:31.277Z,26.00
2019-02-17T11:17:59.775Z,26.13
2019-02-17T11:20:28.238Z,26.30
2019-02-17T11:22:56.695Z,28.67
2019-02-17T11:25:26.136Z,27.70
2019-02-17T11:27:54.593Z,27.33
2019-02-17T11:30:23.061Z,25.50
2019-02-17T11:32:58.060Z,26.17
2019-02-17T11:35:21.770Z,28.73
2019-02-17T11:37:50.254Z,24.90
2019-02-17T11:40:18.772Z,27.53
2019-02-17T11:42:47.240Z,25.80
2019-02-17T11:45:17.519Z,25.07
2019-02-17T11:47:46.017Z,23.67
2019-02-17T11:50:15.797Z,22.80
2019-02-17T11:52:44.520Z,23.23
2019-02-17T11:55:15.641Z,23.10
2019-02-17T11:57:44.383Z,23.20
2019-02-17T12:00:18.435Z,23.93
2019-02-17T12:02:46.960Z,24.50
2019-02-17T12:05:15.518Z,23.40
2019-02-17T12:07:44.002Z,22.40
2019-02-17T12:10:12.682Z,21.60
2019-02-17T12:12:41.194Z,24.00
2019-02-17T12:15:11.892Z,23.77
2019-02-17T12:17:40.517Z,24.00
2019-02-17T12:20:41.159Z,23.67
2019-02-17T12:23:11.307Z,22.63
2019-02-17T12:25:44.370Z,22.00
2019-02-17T12:28:14.502Z,20.57
2019-02-17T12:30:44.366Z,19.60
2019-02-17T12:33:19.191Z,20.60
2019-02-17T12:35:43.020Z,20.67
2019-02-17T12:38:11.536Z,18.33
2019-02-17T12:40:39.998Z,17.67
2019-02-17T12:43:08.474Z,20.20
2019-02-17T12:45:36.978Z,18.77
2019-02-17T12:48:05.458Z,18.17
2019-02-17T12:50:33.919Z,15.20
2019-02-17T12:53:02.449Z,16.27
2019-02-17T12:55:30.910Z,14.67
2019-02-17T12:57:59.368Z,15.43
2019-02-17T13:00:27.874Z,16.03
2019-02-17T13:02:56.326Z,16.43
2019-02-17T13:05:24.793Z,14.40
2019-02-17T13:07:53.298Z,16.27
2019-02-17T13:10:21.784Z,14.63
2019-02-17T13:12:50.258Z,16.03
2019-02-17T13:15:18.784Z,17.20
2019-02-17T13:17:47.235Z,17.17
2019-02-17T13:20:16.791Z,16.30
2019-02-17T13:22:45.323Z,17.37
2019-02-17T13:25:15.651Z,16.57
2019-02-17T13:27:44.118Z,16.43
2019-02-17T13:30:15.677Z,18.00
2019-02-17T13:32:44.147Z,19.63
2019-02-17T13:35:12.621Z,16.83
2019-02-17T13:37:41.168Z,18.73
2019-02-17T13:40:12.255Z,18.10
2019-02-17T13:42:40.714Z,24.80
2019-02-17T13:45:14.028Z,17.37
2019-02-17T13:47:42.538Z,18.13
2019-02-17T13:50:13.531Z,19.53
2019-02-17T13:52:42.028Z,19.67
2019-02-17T13:55:11.027Z,20.37
2019-02-17T13:57:39.505Z,19.70
2019-02-17T14:00:11.016Z,21.93
2019-02-17T14:02:39.483Z,19.63
2019-02-17T14:05:08.185Z,21.27
2019-02-17T14:07:36.713Z,18.50
2019-02-17T14:10:10.712Z,20.90
2019-02-17T14:12:50.446Z,20.27
2019-02-17T14:15:20.179Z,18.90
2019-02-17T14:17:48.643Z,20.73
2019-02-17T14:20:17.179Z,18.73
2019-02-17T14:22:45.857Z,19.20
2019-02-17T14:25:14.422Z,18.17
2019-02-17T14:27:42.890Z,20.17
2019-02-17T14:30:13.330Z,19.70
2019-02-17T14:32:41.809Z,17.70
2019-02-17T14:35:10.347Z,19.03
2019-02-17T14:37:38.895Z,17.00
2019-02-17T14:40:12.295Z,19.10
2019-02-17T14:42:40.753Z,20.10
2019-02-17T14:45:13.368Z,19.87
2019-02-17T14:47:41.841Z,18.80
2019-02-17T14:50:11.164Z,19.27
2019-02-17T14:52:39.683Z,17.03
2019-02-17T14:55:12.096Z,18.73
2019-02-17T14:57:40.557Z,18.30
2019-02-17T15:00:16.188Z,17.70
2019-02-17T15:02:44.654Z,19.30
2019-02-17T15:05:13.190Z,17.33
2019-02-17T15:07:41.700Z,18.63
2019-02-17T15:10:14.433Z,20.10
2019-02-17T15:12:42.916Z,20.20
2019-02-17T15:15:12.865Z,19.40
2019-02-17T15:17:41.335Z,19.40
2019-02-17T15:20:17.184Z,19.30
2019-02-17T15:22:45.703Z,18.87
2019-02-17T15:25:14.407Z,20.80
2019-02-17T15:27:42.893Z,17.83
2019-02-17T15:30:17.652Z,19.60
2019-02-17T15:32:45.633Z,18.73
2019-02-17T15:35:14.111Z,20.47
2019-02-17T15:37:42.611Z,19.13
2019-02-17T15:40:12.915Z,20.47
2019-02-17T15:42:43.051Z,18.70
2019-02-17T15:45:14.893Z,20.17
2019-02-17T15:47:43.452Z,21.00
2019-02-17T15:50:12.958Z,21.67
2019-02-17T15:52:41.468Z,21.10
2019-02-17T15:55:16.525Z,19.63
2019-02-17T15:57:44.993Z,18.20
2019-02-17T16:00:17.511Z,18.17
2019-02-17T16:02:45.974Z,17.70
2019-02-17T16:05:14.445Z,16.17
2019-02-17T16:07:44.404Z,17.63
2019-02-17T16:10:17.768Z,16.50
2019-02-17T16:12:46.241Z,16.50
2019-02-17T16:15:20.112Z,16.30
2019-02-17T16:17:48.586Z,16.97
2019-02-17T16:20:17.070Z,17.60
2019-02-17T16:22:45.579Z,18.23
2019-02-17T16:25:14.045Z,17.57
2019-02-17T16:27:42.767Z,18.03
2019-02-17T16:30:13.868Z,17.83
2019-02-17T16:32:42.416Z,19.83
2019-02-17T16:35:10.878Z,19.07
2019-02-17T16:37:39.369Z,20.07
2019-02-17T16:40:15.403Z,19.40
2019-02-17T16:42:43.909Z,21.73
2019-02-17T16:45:13.518Z,18.63
2019-02-17T16:47:42.146Z,20.17
2019-02-17T16:50:19.830Z,17.50
2019-02-17T16:52:48.293Z,20.77
2019-02-17T16:55:16.820Z,17.90
2019-02-17T16:57:45.419Z,19.33
2019-02-17T17:00:18.161Z,20.20
2019-02-17T17:02:46.612Z,20.67
2019-02-17T17:05:15.265Z,20.70
2019-02-17T17:07:43.821Z,19.90
2019-02-17T17:10:12.360Z,19.13
2019-02-17T17:12:41.031Z,19.57
2019-02-17T17:15:09.972Z,20.53
2019-02-17T17:17:38.504Z,19.17
2019-02-17T17:20:10.058Z,20.47
2019-02-17T17:22:38.526Z,20.40
2019-02-17T17:25:10.578Z,19.65
2019-02-17T17:27:41.322Z,22.60
2019-02-17T17:30:23.326Z,22.23
2019-02-17T17:32:51.754Z,20.90
2019-02-17T17:35:20.219Z,21.97
2019-02-17T17:37:48.683Z,21.83
2019-02-17T17:40:18.115Z,24.10
2019-02-17T17:42:47.242Z,20.70
2019-02-17T17:45:20.244Z,21.40
2019-02-17T17:47:52.851Z,23.30
2019-02-17T17:50:21.329Z,22.00
2019-02-17T17:52:49.882Z,22.40
2019-02-17T17:55:18.390Z,22.67
2019-02-17T17:57:46.845Z,22.80
2019-02-17T18:00:18.376Z,23.90
2019-02-17T18:02:46.899Z,23.73
2019-02-17T18:05:15.418Z,23.30
2019-02-17T18:07:43.942Z,22.57
2019-02-17T18:10:16.270Z,20.90
2019-02-17T18:12:44.834Z,22.83
2019-02-17T18:15:18.577Z,24.03
2019-02-17T18:17:53.897Z,20.77
2019-02-17T18:20:17.322Z,22.50
2019-02-17T18:22:45.796Z,23.13
2019-02-17T18:25:14.910Z,22.17
2019-02-17T18:27:43.383Z,20.93
2019-02-17T18:30:19.798Z,20.87
2019-02-17T18:32:48.255Z,21.47
2019-02-17T18:35:20.308Z,22.50
2019-02-17T18:37:51.286Z,21.70
2019-02-17T18:40:30.611Z,22.90
2019-02-17T18:42:54.819Z,22.60
2019-02-17T18:45:23.283Z,23.03
2019-02-17T18:47:51.923Z,22.83
2019-02-17T18:50:20.488Z,25.47
2019-02-17T18:52:49.100Z,26.97
2019-02-17T18:55:17.552Z,28.97
2019-02-17T18:57:50.327Z,29.67
2019-02-17T19:00:23.683Z,26.07
2019-02-17T19:02:52.261Z,27.17
2019-02-17T19:05:31.053Z,28.53
2019-02-17T19:07:50.916Z,22.93
2019-02-17T19:10:19.502Z,29.93
2019-02-17T19:12:47.955Z,27.93
2019-02-17T19:15:19.744Z,28.57
2019-02-17T19:17:48.300Z,26.13
2019-02-17T19:20:19.749Z,29.90
2019-02-17T19:22:48.221Z,30.13
2019-02-17T19:25:16.711Z,29.40
2019-02-17T19:27:45.160Z,28.33
2019-02-17T19:30:15.371Z,26.53
2019-02-17T19:32:43.928Z,24.13
2019-02-17T19:35:14.424Z,25.20
2019-02-17T19:37:42.895Z,28.20
2019-02-17T19:40:13.357Z,27.80
2019-02-17T19:42:41.804Z,27.53
2019-02-17T19:45:17.313Z,27.37
2019-02-17T19:47:45.808Z,26.63
2019-02-17T19:50:15.282Z,27.67
2019-02-17T19:52:43.759Z,30.30
2019-02-17T19:55:14.274Z,29.70
2019-02-17T19:57:42.950Z,31.07
2019-02-17T20:00:14.539Z,28.33
2019-02-17T20:02:59.824Z,29.67
2019-02-17T20:05:29.931Z,29.17
2019-02-17T20:07:58.391Z,29.83
2019-02-17T20:10:26.870Z,29.13
2019-02-17T20:12:55.332Z,28.27
2019-02-17T20:15:25.434Z,28.30
2019-02-17T20:17:54.227Z,28.70
2019-02-17T20:20:22.688Z,29.07
2019-02-17T20:22:51.148Z,31.70
2019-02-17T20:25:19.667Z,31.80
2019-02-17T20:27:48.120Z,30.83
2019-02-17T20:30:16.599Z,31.27
2019-02-17T20:32:45.135Z,32.93
2019-02-17T20:35:13.613Z,31.30
2019-02-17T20:37:44.768Z,31.63
2019-02-17T20:40:15.184Z,31.17
2019-02-17T20:42:43.640Z,31.20
2019-02-17T20:45:12.491Z,33.53
2019-02-17T20:47:41.024Z,31.23
2019-02-17T20:50:12.234Z,30.90
2019-02-17T20:52:40.888Z,31.70
2019-02-17T20:55:11.155Z,32.97
2019-02-17T20:57:39.625Z,31.50
2019-02-17T21:00:22.727Z,31.77
2019-02-17T21:02:54.504Z,33.20
2019-02-17T21:05:22.974Z,33.50
2019-02-17T21:07:51.465Z,32.23
2019-02-17T21:10:19.928Z,31.43
2019-02-17T21:12:48.403Z,32.07
2019-02-17T21:15:20.666Z,34.10
2019-02-17T21:17:49.127Z,31.43
2019-02-17T21:20:18.865Z,37.50
2019-02-17T21:22:47.363Z,32.13
2019-02-17T21:25:15.826Z,34.50
2019-02-17T21:27:44.419Z,33.57
2019-02-17T21:30:20.362Z,34.47
2019-02-17T21:32:48.909Z,41.67
2019-02-17T21:35:17.742Z,39.33
2019-02-17T21:37:46.328Z,34.60
2019-02-17T21:40:15.139Z,34.57
2019-02-17T21:42:43.612Z,34.93
2019-02-17T21:45:16.066Z,35.77
2019-02-17T21:47:44.560Z,34.40
2019-02-17T21:50:15.448Z,37.30
2019-02-17T21:52:45.350Z,38.53
2019-02-17T21:55:17.138Z,39.03
2019-02-17T21:57:47.272Z,37.30
2019-02-17T22:00:20.673Z,39.03
2019-02-17T22:02:49.146Z,36.70
2019-02-17T22:05:17.692Z,39.93
2019-02-17T22:07:46.332Z,37.73
2019-02-17T22:10:17.010Z,44.60
2019-02-17T22:12:45.558Z,40.77
2019-02-17T22:15:19.697Z,41.43
2019-02-17T22:17:48.152Z,46.00
2019-02-17T22:20:16.618Z,50.07
2019-02-17T22:22:45.127Z,43.67
2019-02-17T22:25:15.223Z,43.77
2019-02-17T22:27:43.726Z,43.20
2019-02-17T22:30:15.561Z,35.30
2019-02-17T22:32:44.049Z,39.87
2019-02-17T22:35:12.567Z,41.20
2019-02-17T22:37:41.067Z,41.80
2019-02-17T22:40:14.200Z,39.30
2019-02-17T22:42:43.698Z,42.20
2019-02-17T22:45:12.930Z,37.23
2019-02-17T22:47:41.394Z,39.07
2019-02-17T22:50:16.332Z,39.37
2019-02-17T22:52:47.969Z,41.90
2019-02-17T22:55:16.433Z,38.27
2019-02-17T22:57:44.887Z,38.43
2019-02-17T23:00:26.432Z,38.63
2019-02-17T23:02:54.888Z,39.50
2019-02-17T23:05:23.349Z,39.00
2019-02-17T23:07:51.854Z,40.40
2019-02-17T23:10:20.314Z,40.27
2019-02-17T23:12:48.786Z,39.40
2019-02-17T23:15:17.344Z,40.83
2019-02-17T23:17:45.804Z,38.67
2019-02-17T23:20:14.273Z,39.43
2019-02-17T23:22:42.788Z,37.43
2019-02-17T23:25:11.325Z,36.37
2019-02-17T23:27:39.829Z,38.77
2019-02-17T23:30:10.682Z,36.87
2019-02-17T23:32:39.159Z,39.97
2019-02-17T23:35:09.187Z,39.37
2019-02-17T23:37:37.661Z,40.37
2019-02-17T23:40:09.299Z,39.47
2019-02-17T23:42:37.772Z,39.43
2019-02-17T23:45:12.421Z,38.20
2019-02-17T23:47:41.062Z,40.00
2019-02-17T23:50:13.742Z,40.63
2019-02-17T23:52:42.627Z,37.87
2019-02-17T23:55:11.939Z,37.53
2019-02-17T23:57:40.393Z,41.10
